Briefing drone pour Tain-l'hermitage

Rechercher une autre localisation

Conditions de vol :


Nous sommes le : Mercredi 28 octobre 2020
Il est 08:15 UTC (09:15 LT)

Lever de soleil : 05:47 UTC (06:47 LT)
Coucher de soleil : 17:00 UTC (18:00 LT)

Météo

L'essentiel des conditions de vol

VIGILANCE MÉTÉO FRANCE - Drôme (26)
Pas de vigilances particulieres
CARTES DES FRONTS
METAR de LFLU
LFLU 280800Z AUTO VRB02KT 9999 FEW090 12/08 Q1018

Date d'émission: 28/10/2020
Heure d'émission: 08:00 UTC
Vent: Variable 2 KT (4 km/h)
Visibilité horizontale: > 10 km
Plafond :
- Peu de nuages à 9000ft (2743m)
Température: 12 °C
Point de rosée: 8 °C
Humidité: 77%
Pression (QNH): 1018 hPa
Prévision 24h pour Valence (10 km)
Vent : 355° pour 1 KT (4 km/h)
Temperature Maxi: 11 °C
Temperature Min: 11 °C
Humidité : 79%
Condition : Couvert



Warning: count(): Parameter must be an array or an object that implements Countable in /homepages/6/d509196549/htdocs/droneoxygene/briefing.php on line 743
WEBCAM POUR TAIN-L'HERMITAGE

Réglementation

Voler en sécurité

CARTES AERONAUTIQUE 1/500.000
CARTES VAC (LFLU)
SUP AIP




Chargement des AIP...
NOTAM (TAIN-L'HERMITAGE + Terrain à proximité / FIR )




Chargement des NOTAMS...
CONTACT PREFECTURE 26
Drôme (26) : ddt-sdsr@drome.gouv.fr


Avertissement : Les données mises à disposition sont indicatives. Oxygène Drone ne pourra être tenu responsable de dégâts causés aux biens et aux personnes.